CH5 weather

CLOSED Flagg Cove Water Aerodrome
North Head, New Brunswick, Canada

Public forecast

Using degrees Celsius for public forecast. Weather courtesy of forecast.io.

METAR (pilot weather report)

Closest report is Saint John Airport, 49.5 nm (91.7 km) NE. Retrieved 2019/08/20 01:00 UTC (56 minutes ago):

CYSJ 200100Z 21008KT 3/8SM -DZ FG VV001 17/17 A2991 RMK FG8 SLP130 DENSITY ALT 800FT

TAF (pilot weather forecast)

Forecast is more than 12 hours old.

Closest forecast is Saint John Airport, 49.5 nm (91.7 km) NE. Retrieved 2019/08/19 00:39 UTC (1 day ago):

TAF CYSJ 192338Z 2000/2012 20010KT 1/4SM -DZ FG VV001 TEMPO 2000/2012 1/2SM FG VV002 BECMG 2010/2012 31007KT RMK NXT FCST BY 200600Z